Time;durP1;ratioP1;P1;durP2;ratioP2;P2;SDS_P1;SDS_P2;PMS_P1;PMS_P2;Temp;Humidity;BMP_temperature;BMP_pressure;BME280_temperature;BME280_humidity;BME280_pressure;Samples;Min_cycle;Max_cycle;Signal;HPM_P1;HPM_P2
2022/03/24 00:00:59;;;;;;;0.30;0.20;;;;;;;15.41;69.35;101793.47;4937453;29;20040;-81
2022/03/24 00:03:28;;;;;;;0.40;0.20;;;;;;;15.37;70.32;101790.75;4938994;28;20079;-82
2022/03/24 00:05:56;;;;;;;0.40;0.38;;;;;;;15.37;71.22;101794.28;4936516;29;20051;-82
2022/03/24 00:08:25;;;;;;;1.65;0.20;;;;;;;15.38;72.31;101802.97;4935384;29;20048;-81
2022/03/24 00:10:55;;;;;;;0.25;0.20;;;;;;;15.40;72.00;101798.69;4935416;29;20103;-81
2022/03/24 00:13:23;;;;;;;0.70;0.30;;;;;;;15.43;71.61;101802.22;4935183;29;20529;-82
2022/03/24 00:15:51;;;;;;;0.60;0.30;;;;;;;15.46;71.88;101785.78;4935300;29;20417;-80
2022/03/24 00:18:20;;;;;;;3.03;0.63;;;;;;;15.56;70.37;101785.19;4934854;29;20047;-79
2022/03/24 00:20:48;;;;;;;1.38;0.35;;;;;;;15.61;69.95;101785.31;4935921;29;20395;-81
2022/03/24 00:23:17;;;;;;;0.98;0.40;;;;;;;15.64;69.75;101785.38;4934520;29;20048;-83
2022/03/24 00:25:46;;;;;;;1.23;0.35;;;;;;;15.72;70.17;101783.00;4934580;29;20050;-81
2022/03/24 00:28:16;;;;;;;0.52;0.30;;;;;;;15.76;68.88;101790.03;4935412;29;20055;-82
2022/03/24 00:30:44;;;;;;;1.23;0.30;;;;;;;15.78;68.66;101790.97;4935628;29;20058;-81
2022/03/24 00:33:13;;;;;;;0.43;0.30;;;;;;;15.82;68.79;101782.38;4934549;29;20063;-82
2022/03/24 00:35:41;;;;;;;0.65;0.20;;;;;;;15.88;68.67;101790.38;4934309;29;20493;-80
2022/03/24 00:38:10;;;;;;;0.50;0.25;;;;;;;15.86;67.45;101781.59;4934732;29;20048;-79
2022/03/24 00:40:38;;;;;;;0.80;0.20;;;;;;;15.85;66.99;101785.03;4934291;29;20094;-80
2022/03/24 00:43:08;;;;;;;0.47;0.20;;;;;;;15.84;68.47;101788.50;4934645;29;20055;-83
2022/03/24 00:45:40;;;;;;;0.10;0.10;;;;;;;15.87;67.56;101792.09;4934798;29;20402;-81
2022/03/24 00:48:09;;;;;;;0.20;0.20;;;;;;;15.89;68.33;101792.13;4935381;29;20051;-80
2022/03/24 00:50:37;;;;;;;0.30;0.20;;;;;;;15.91;67.10;101791.31;4934347;29;20051;-81
2022/03/24 00:53:06;;;;;;;0.22;0.10;;;;;;;15.93;66.47;101799.19;4934885;29;20532;-82
2022/03/24 00:55:35;;;;;;;0.13;0.10;;;;;;;15.94;65.08;101800.94;4935112;29;20454;-80
2022/03/24 00:58:03;;;;;;;0.00;0.00;;;;;;;15.93;66.27;101812.22;4937400;29;20051;-81
2022/03/24 01:00:32;;;;;;;0.95;0.13;;;;;;;15.91;63.91;101816.53;4936976;29;20489;-82
2022/03/24 01:03:06;;;;;;;0.35;0.10;;;;;;;15.89;63.79;101813.00;4934894;29;20052;-81
2022/03/24 01:05:37;;;;;;;0.30;0.20;;;;;;;15.87;63.30;101819.91;4934665;28;20067;-82
2022/03/24 01:08:08;;;;;;;0.75;0.00;;;;;;;15.82;63.70;101822.41;4934037;29;20059;-79
2022/03/24 01:10:37;;;;;;;0.00;0.00;;;;;;;15.77;64.38;101820.53;4934593;29;20055;-81
2022/03/24 01:13:05;;;;;;;0.20;0.05;;;;;;;15.71;64.49;101816.03;4934163;29;20053;-82
2022/03/24 01:15:34;;;;;;;0.00;0.00;;;;;;;15.66;64.76;101809.78;4934247;29;20494;-80
2022/03/24 01:18:06;;;;;;;0.10;0.10;;;;;;;15.61;63.82;101812.28;4935069;29;20091;-81
2022/03/24 01:20:34;;;;;;;0.23;0.13;;;;;;;15.58;63.34;101808.72;4935736;29;20079;-84
2022/03/24 01:23:02;;;;;;;0.03;0.00;;;;;;;15.56;62.43;101816.50;4934506;29;20485;-80
2022/03/24 01:25:31;;;;;;;0.20;0.10;;;;;;;15.55;63.97;101822.53;4934859;29;20063;-81
2022/03/24 01:27:59;;;;;;;0.10;0.00;;;;;;;15.52;63.23;101822.47;4922802;29;20111;-80
2022/03/24 01:30:28;;;;;;;0.00;0.00;;;;;;;15.47;63.58;101824.06;4935346;29;20056;-81
2022/03/24 01:32:56;;;;;;;0.00;0.00;;;;;;;15.46;63.50;101835.34;4934018;29;20091;-82
2022/03/24 01:35:27;;;;;;;0.10;0.10;;;;;;;15.47;64.29;101834.50;4934672;29;20058;-84
2022/03/24 01:37:55;;;;;;;0.25;0.10;;;;;;;15.45;64.20;101836.19;4927857;29;20490;-82
2022/03/24 01:40:24;;;;;;;0.08;0.05;;;;;;;15.41;64.60;101840.44;4935229;29;20048;-82
2022/03/24 01:42:54;;;;;;;0.20;0.10;;;;;;;15.36;63.63;101830.72;4938133;29;20048;-81
2022/03/24 01:45:23;;;;;;;0.00;0.00;;;;;;;15.31;63.73;101835.81;4935894;29;20501;-84
2022/03/24 01:47:52;;;;;;;0.82;0.20;;;;;;;15.28;64.91;101831.41;4933742;29;20309;-82
2022/03/24 01:50:20;;;;;;;0.00;0.00;;;;;;;15.32;64.80;101826.28;4933806;29;20043;-81
2022/03/24 01:52:51;;;;;;;0.00;0.00;;;;;;;15.32;64.64;101829.75;4933606;29;20188;-81
2022/03/24 01:55:19;;;;;;;0.30;0.17;;;;;;;15.31;64.62;101834.94;4932940;29;20537;-83
2022/03/24 01:57:48;;;;;;;0.10;0.10;;;;;;;15.29;64.78;101830.56;4933343;29;20568;-78
2022/03/24 02:00:16;;;;;;;0.55;0.25;;;;;;;15.26;65.36;101843.53;4933326;29;20122;-80
2022/03/24 02:02:46;;;;;;;1.13;0.30;;;;;;;15.22;65.68;101843.38;4922804;29;20170;-79
2022/03/24 02:05:15;;;;;;;0.68;0.45;;;;;;;15.19;65.63;101845.94;4932484;28;20063;-78
2022/03/24 02:07:44;;;;;;;0.70;0.35;;;;;;;15.16;65.81;101854.50;4932786;29;20119;-80
2022/03/24 02:10:14;;;;;;;1.15;0.52;;;;;;;15.12;65.72;101847.47;4931821;29;20072;-80
2022/03/24 02:12:42;;;;;;;1.08;0.50;;;;;;;15.09;65.83;101849.97;4932559;29;20094;-81
2022/03/24 02:15:12;;;;;;;1.10;0.50;;;;;;;15.08;65.32;101861.25;4932575;29;20691;-81
2022/03/24 02:17:41;;;;;;;0.80;0.47;;;;;;;15.06;66.17;101857.72;4933543;29;20055;-81
2022/03/24 02:20:11;;;;;;;0.40;0.30;;;;;;;15.06;66.35;101860.31;4931718;29;20043;-79
2022/03/24 02:22:41;;;;;;;0.35;0.30;;;;;;;15.03;66.69;101857.63;4932046;29;20103;-80
2022/03/24 02:25:11;;;;;;;0.60;0.30;;;;;;;14.98;65.52;101859.19;4932049;29;20138;-79
2022/03/24 02:27:39;;;;;;;0.55;0.28;;;;;;;14.93;66.41;101860.78;4932723;29;20047;-79
2022/03/24 02:30:09;;;;;;;1.00;0.32;;;;;;;14.86;66.37;101871.03;4932517;29;20131;-80
2022/03/24 02:32:38;;;;;;;0.20;0.13;;;;;;;14.81;64.51;101877.84;4935627;29;20090;-80
2022/03/24 02:35:07;;;;;;;0.20;0.10;;;;;;;14.74;61.99;101873.28;4934479;29;20051;-81
2022/03/24 02:37:35;;;;;;;0.20;0.10;;;;;;;14.67;62.81;101881.75;4932827;29;20114;-79
2022/03/24 02:40:07;;;;;;;1.90;0.10;;;;;;;14.60;62.17;101887.59;4932361;29;20522;-79
2022/03/24 02:42:38;;;;;;;0.38;0.10;;;;;;;14.56;62.84;101885.75;4932169;29;20047;-78
2022/03/24 02:45:08;;;;;;;0.32;0.25;;;;;;;14.49;62.32;101888.97;4932614;29;20055;-80
2022/03/24 02:47:37;;;;;;;0.47;0.30;;;;;;;14.43;61.03;101885.34;4932759;29;20047;-79
2022/03/24 02:50:06;;;;;;;0.52;0.30;;;;;;;14.35;61.74;101893.72;4932128;29;20106;-79
2022/03/24 02:52:35;;;;;;;0.25;0.10;;;;;;;14.23;61.50;101894.22;4932380;29;20584;-79
2022/03/24 02:55:05;;;;;;;0.50;0.25;;;;;;;14.16;61.21;101894.84;4932845;29;20115;-77
2022/03/24 02:57:34;;;;;;;0.20;0.13;;;;;;;14.07;60.82;101895.44;4931301;29;20083;-82
2022/03/24 03:00:03;;;;;;;0.20;0.10;;;;;;;14.01;60.99;101905.63;4932417;29;20048;-80
2022/03/24 03:02:31;;;;;;;1.58;0.20;;;;;;;13.93;60.91;101913.19;4931046;29;20130;-80
2022/03/24 03:05:00;;;;;;;0.55;0.30;;;;;;;13.87;61.94;101917.28;4932457;28;20143;-79
2022/03/24 03:07:30;;;;;;;0.40;0.22;;;;;;;13.82;61.56;101918.00;4932101;29;20056;-79
2022/03/24 03:09:58;;;;;;;2.13;0.30;;;;;;;13.79;62.62;101927.44;4931399;29;20541;-80
2022/03/24 03:12:28;;;;;;;0.30;0.30;;;;;;;13.73;63.07;101922.88;4931375;29;20044;-79
2022/03/24 03:14:57;;;;;;;1.83;0.20;;;;;;;13.69;63.35;101920.13;4931656;29;20112;-79
2022/03/24 03:17:28;;;;;;;0.10;0.10;;;;;;;13.66;63.40;101926.09;4917865;29;20591;-79
2022/03/24 03:19:56;;;;;;;0.22;0.15;;;;;;;13.61;63.79;101930.28;4931469;29;20084;-80
2022/03/24 03:22:26;;;;;;;0.90;0.40;;;;;;;13.54;63.76;101934.34;4931604;29;20058;-79
2022/03/24 03:24:55;;;;;;;0.22;0.22;;;;;;;13.48;64.22;101933.25;4931906;29;20051;-78
2022/03/24 03:27:32;;;;;;;1.00;0.30;;;;;;;13.40;64.75;101940.78;4934099;29;20126;-79
2022/03/24 03:30:12;;;;;;;0.20;0.20;;;;;;;13.32;64.68;101934.41;4919125;29;20063;-80
2022/03/24 03:32:41;;;;;;;0.40;0.20;;;;;;;13.28;65.53;101940.31;4932236;29;20142;-79
2022/03/24 03:35:10;;;;;;;0.98;0.32;;;;;;;13.21;65.84;101945.22;4932564;29;20056;-79
2022/03/24 03:37:39;;;;;;;1.55;0.20;;;;;;;13.10;68.18;101946.56;4932762;29;20056;-79
2022/03/24 03:40:10;;;;;;;0.28;0.20;;;;;;;13.06;68.98;101949.00;4932278;29;20044;-79
2022/03/24 03:42:38;;;;;;;0.45;0.30;;;;;;;12.98;69.51;101946.06;4933929;29;20075;-79
2022/03/24 03:45:10;;;;;;;0.38;0.22;;;;;;;12.90;69.93;101953.59;4934173;29;20059;-79
2022/03/24 03:47:38;;;;;;;0.10;0.10;;;;;;;12.83;69.90;101953.25;4932599;29;20040;-80
2022/03/24 03:50:08;;;;;;;1.00;0.20;;;;;;;12.77;69.83;101957.38;4931626;29;20134;-80
2022/03/24 03:52:36;;;;;;;0.10;0.10;;;;;;;12.68;70.50;101957.03;4931746;29;20108;-79
2022/03/24 03:55:05;;;;;;;0.55;0.10;;;;;;;12.62;70.27;101964.59;4932115;29;20052;-78
2022/03/24 03:57:34;;;;;;;0.00;0.00;;;;;;;12.55;70.24;101966.06;4930966;29;20074;-79
2022/03/24 04:00:52;;;;;;;0.10;0.10;;;;;;;12.48;70.82;101971.78;4932437;29;20059;-78
2022/03/24 04:02:53;;;;;;;1.58;0.20;;;;;;;12.36;70.60;101972.16;4931060;29;20082;-79
2022/03/24 04:05:25;;;;;;;0.50;0.20;;;;;;;12.33;70.55;101981.56;4932188;28;20063;-79
2022/03/24 04:07:53;;;;;;;0.10;0.10;;;;;;;12.26;71.32;101982.13;4931148;29;20052;-79
2022/03/24 04:10:22;;;;;;;0.80;0.20;;;;;;;12.18;71.52;101989.56;4931147;29;20188;-78
2022/03/24 04:12:51;;;;;;;0.20;0.10;;;;;;;12.11;71.59;101992.72;4931038;29;20051;-79
2022/03/24 04:15:20;;;;;;;1.00;0.15;;;;;;;12.00;71.21;101991.38;4932390;29;20058;-78
2022/03/24 04:17:48;;;;;;;0.10;0.10;;;;;;;11.98;70.76;102005.97;4932058;29;20052;-79
2022/03/24 04:20:20;;;;;;;1.17;0.22;;;;;;;11.92;70.73;102010.09;4918501;29;20052;-79
2022/03/24 04:22:49;;;;;;;0.25;0.20;;;;;;;11.84;70.74;102015.72;4932934;29;20063;-79
2022/03/24 04:25:18;;;;;;;0.28;0.20;;;;;;;11.79;70.81;102019.81;4935139;29;20056;-79
2022/03/24 04:27:47;;;;;;;0.17;0.10;;;;;;;11.73;71.46;102018.72;4932572;29;20051;-80
2022/03/24 04:30:16;;;;;;;0.20;0.20;;;;;;;11.66;71.28;102024.47;4931360;29;20127;-79
2022/03/24 04:32:45;;;;;;;0.13;0.10;;;;;;;11.58;71.51;102027.50;4933230;29;20051;-77
2022/03/24 04:35:14;;;;;;;0.88;0.30;;;;;;;11.48;68.64;102019.31;4935751;29;20083;-79
2022/03/24 04:37:45;;;;;;;0.88;0.20;;;;;;;11.45;69.60;102020.88;4934528;29;20052;-79
2022/03/24 04:40:15;;;;;;;0.35;0.17;;;;;;;11.38;67.88;102022.28;4935044;29;20052;-80
2022/03/24 04:42:44;;;;;;;0.28;0.10;;;;;;;11.33;67.69;102031.56;4935227;29;20477;-81
2022/03/24 04:45:13;;;;;;;0.15;0.05;;;;;;;11.25;67.01;102038.09;4935217;29;20059;-81
2022/03/24 04:47:42;;;;;;;1.02;0.10;;;;;;;11.18;63.72;102044.69;4934848;29;20082;-79
2022/03/24 04:50:11;;;;;;;0.95;0.20;;;;;;;11.14;63.93;102049.66;4934723;29;20052;-82
2022/03/24 04:52:40;;;;;;;5.18;0.20;;;;;;;11.07;64.89;102035.53;4934807;29;20096;-79
2022/03/24 04:55:11;;;;;;;0.28;0.13;;;;;;;11.00;64.04;102034.34;4933450;29;20095;-80
2022/03/24 04:57:39;;;;;;;0.77;0.20;;;;;;;10.95;64.01;102046.19;4934078;29;20086;-81
2022/03/24 05:00:10;;;;;;;2.72;0.43;;;;;;;10.90;63.00;102034.69;4935178;29;20075;-81
2022/03/24 05:02:39;;;;;;;3.70;0.55;;;;;;;10.87;62.20;102038.00;4934078;29;20050;-81
2022/03/24 05:05:08;;;;;;;0.40;0.20;;;;;;;10.87;63.64;102052.66;4935709;28;20091;-80
2022/03/24 05:07:37;;;;;;;0.30;0.20;;;;;;;10.84;63.67;102048.22;4934407;29;20055;-82
2022/03/24 05:10:06;;;;;;;1.40;0.60;;;;;;;10.79;63.60;102051.38;4935702;29;20054;-80
2022/03/24 05:12:39;;;;;;;1.98;0.22;;;;;;;10.78;64.56;102062.56;4934188;29;20048;-81
2022/03/24 05:15:11;;;;;;;0.38;0.30;;;;;;;10.73;63.39;102064.94;4934412;29;20068;-80
2022/03/24 05:17:40;;;;;;;6.30;0.60;;;;;;;10.69;62.38;102060.41;4935070;29;20569;-82
2022/03/24 05:20:09;;;;;;;0.73;0.30;;;;;;;10.66;62.14;102065.44;4936452;29;20055;-79
2022/03/24 05:22:38;;;;;;;1.63;0.20;;;;;;;10.62;63.11;102059.22;4938740;29;20470;-79
2022/03/24 05:25:07;;;;;;;0.55;0.40;;;;;;;10.60;63.88;102058.25;4936044;29;20055;-81
2022/03/24 05:27:37;;;;;;;0.10;0.10;;;;;;;10.57;64.33;102062.41;4933757;29;20055;-79
2022/03/24 05:30:07;;;;;;;1.65;0.85;;;;;;;10.53;64.18;102056.16;4933257;29;20048;-81
2022/03/24 05:32:37;;;;;;;0.52;0.25;;;;;;;10.49;62.87;102062.03;4933623;29;20083;-83
2022/03/24 05:35:06;;;;;;;2.33;0.30;;;;;;;10.44;63.50;102050.53;4934411;29;20163;-80
2022/03/24 05:37:35;;;;;;;2.33;0.30;;;;;;;10.38;64.70;102055.41;4936565;29;20048;-80
2022/03/24 05:40:04;;;;;;;3.13;0.57;;;;;;;10.33;62.01;102057.75;4934853;29;20067;-82
2022/03/24 05:42:32;;;;;;;1.30;0.60;;;;;;;10.16;57.86;102054.25;4936377;29;20083;-81
2022/03/24 05:45:03;;;;;;;1.85;0.20;;;;;;;10.10;58.68;102053.97;4938796;29;20106;-79
2022/03/24 05:47:31;;;;;;;0.85;0.20;;;;;;;10.05;57.07;102058.84;4935676;29;20110;-83
2022/03/24 05:50:00;;;;;;;2.70;0.40;;;;;;;10.04;58.00;102056.22;4935577;29;20044;-83
2022/03/24 05:52:28;;;;;;;3.55;0.45;;;;;;;10.02;59.03;102060.41;4933808;29;20060;-84
2022/03/24 05:54:57;;;;;;;1.30;0.52;;;;;;;9.96;58.60;102045.44;4936038;29;20506;-81
2022/03/24 05:57:25;;;;;;;2.40;0.40;;;;;;;9.93;59.20;102054.75;4935901;29;20079;-80
2022/03/24 05:59:54;;;;;;;2.05;0.45;;;;;;;9.82;59.58;102049.88;4934975;29;20059;-83
2022/03/24 06:02:24;;;;;;;1.48;0.30;;;;;;;9.76;59.14;102057.34;4933740;29;20087;-83
2022/03/24 06:04:54;;;;;;;2.03;0.40;;;;;;;9.68;60.14;102052.56;4935011;28;20593;-80
2022/03/24 06:07:22;;;;;;;1.10;0.47;;;;;;;9.56;60.07;102047.63;4934896;29;20099;-84
2022/03/24 06:09:51;;;;;;;3.60;0.77;;;;;;;9.52;60.11;102056.00;4933992;29;20044;-80
2022/03/24 06:12:21;;;;;;;4.25;0.63;;;;;;;9.47;61.60;102054.88;4934423;29;20052;-80
2022/03/24 06:14:50;;;;;;;2.80;0.40;;;;;;;9.45;61.26;102049.59;4934910;29;20047;-80
2022/03/24 06:17:18;;;;;;;3.58;0.50;;;;;;;9.41;61.34;102063.16;4934536;29;20091;-81
2022/03/24 06:19:49;;;;;;;1.75;0.50;;;;;;;9.37;58.00;102066.41;4937655;29;20090;-82
2022/03/24 06:22:18;;;;;;;2.78;1.10;;;;;;;9.35;60.93;102063.72;4923123;29;20139;-80
2022/03/24 06:24:47;;;;;;;2.45;0.17;;;;;;;9.28;58.97;102066.78;4934686;29;20103;-82
2022/03/24 06:27:17;;;;;;;2.20;0.55;;;;;;;9.27;57.62;102071.84;4935310;29;20086;-81
2022/03/24 06:29:45;;;;;;;0.65;0.30;;;;;;;9.26;57.71;102068.38;4936440;29;20044;-81
2022/03/24 06:32:15;;;;;;;1.48;0.30;;;;;;;9.18;57.25;102054.13;4934278;29;20582;-83
2022/03/24 06:34:43;;;;;;;2.72;0.60;;;;;;;9.25;56.24;102068.28;4933602;29;20048;-81
2022/03/24 06:37:13;;;;;;;5.53;0.45;;;;;;;9.25;57.65;102073.44;4933557;29;20111;-79
2022/03/24 06:39:42;;;;;;;1.75;0.50;;;;;;;9.23;58.22;102068.19;4933406;29;20087;-79
2022/03/24 06:42:10;;;;;;;1.30;0.95;;;;;;;9.18;57.53;102061.88;4932757;29;20468;-81
2022/03/24 06:44:39;;;;;;;3.45;0.32;;;;;;;9.16;57.01;102060.91;4935051;29;20430;-80
2022/03/24 06:47:09;;;;;;;1.85;0.55;;;;;;;9.15;56.54;102075.50;4933852;29;20051;-82
2022/03/24 06:49:37;;;;;;;1.45;0.55;;;;;;;9.14;55.70;102072.84;4935211;29;20047;-81
2022/03/24 06:52:06;;;;;;;3.13;0.73;;;;;;;9.15;57.99;102074.63;4935402;29;20062;-80
2022/03/24 06:54:36;;;;;;;1.25;0.30;;;;;;;9.12;56.39;102064.13;4934139;29;20115;-79
2022/03/24 06:57:05;;;;;;;4.40;0.63;;;;;;;9.11;56.86;102067.50;4934387;29;20110;-82
2022/03/24 06:59:34;;;;;;;0.80;0.20;;;;;;;9.07;56.48;102061.31;4933284;29;20204;-83
2022/03/24 07:02:05;;;;;;;4.45;0.70;;;;;;;9.02;55.92;102058.47;4933395;29;20174;-84
2022/03/24 07:04:33;;;;;;;0.52;0.30;;;;;;;8.96;57.03;102063.25;4933206;28;20134;-83
2022/03/24 07:07:02;;;;;;;3.50;0.70;;;;;;;8.94;57.37;102061.41;4921263;29;20051;-82
2022/03/24 07:09:31;;;;;;;1.75;0.30;;;;;;;8.90;56.75;102054.28;4935421;29;20126;-80
2022/03/24 07:12:01;;;;;;;1.85;0.45;;;;;;;8.86;58.28;102060.06;4933751;29;20486;-80
2022/03/24 07:14:29;;;;;;;1.30;0.40;;;;;;;8.71;57.34;102066.13;4933787;29;20051;-81
2022/03/24 07:16:57;;;;;;;6.32;0.60;;;;;;;8.67;57.30;102063.28;4935662;29;20051;-80
2022/03/24 07:19:26;;;;;;;4.32;0.28;;;;;;;8.64;57.41;102064.00;4936396;29;20138;-79
2022/03/24 07:21:54;;;;;;;1.05;0.40;;;;;;;8.60;58.37;102062.91;4934542;29;20561;-80
2022/03/24 07:24:23;;;;;;;1.45;0.75;;;;;;;8.60;57.76;102068.06;4934450;29;20186;-78
2022/03/24 07:26:51;;;;;;;2.67;0.65;;;;;;;8.60;57.88;102067.19;4933952;29;20059;-80
2022/03/24 07:29:21;;;;;;;2.92;0.30;;;;;;;8.58;57.98;102072.25;4936748;29;20501;-80
2022/03/24 07:31:50;;;;;;;5.38;0.73;;;;;;;8.50;57.90;102063.19;4929262;29;20075;-79
2022/03/24 07:34:19;;;;;;;1.33;0.55;;;;;;;8.50;60.46;102068.34;4938321;29;20083;-83
2022/03/24 07:36:47;;;;;;;6.30;1.00;;;;;;;8.44;60.45;102060.25;4938296;29;20052;-81
2022/03/24 07:39:16;;;;;;;1.65;0.30;;;;;;;8.41;61.01;102061.72;4934544;29;20102;-81
2022/03/24 07:41:45;;;;;;;2.95;0.40;;;;;;;8.37;62.59;102058.06;4936334;29;20087;-81
2022/03/24 07:44:13;;;;;;;1.10;0.40;;;;;;;8.33;62.55;102058.69;4936701;29;20530;-81
2022/03/24 07:46:44;;;;;;;1.20;0.20;;;;;;;8.24;63.56;102053.84;4936579;29;20056;-81
2022/03/24 07:49:12;;;;;;;4.10;0.40;;;;;;;8.16;64.59;102057.69;4937697;29;20051;-79
2022/03/24 07:51:41;;;;;;;0.45;0.38;;;;;;;8.01;63.72;102055.06;4934019;29;20047;-80
2022/03/24 07:54:11;;;;;;;3.40;0.30;;;;;;;7.92;63.42;102060.53;4936564;29;20059;-80
2022/03/24 07:56:40;;;;;;;3.10;0.50;;;;;;;7.84;62.28;102058.31;4935238;29;20116;-79
2022/03/24 07:59:08;;;;;;;0.47;0.30;;;;;;;7.81;63.29;102058.09;4934715;29;20083;-81
2022/03/24 08:01:38;;;;;;;1.15;0.32;;;;;;;7.83;63.88;102051.34;4934891;29;20556;-80
2022/03/24 08:04:08;;;;;;;1.88;0.40;;;;;;;7.84;64.12;102060.88;4934920;29;20103;-81
2022/03/24 08:06:36;;;;;;;1.65;0.20;;;;;;;7.82;63.20;102052.16;4938255;28;20493;-80
2022/03/24 08:09:05;;;;;;;0.80;0.30;;;;;;;7.75;63.80;102054.34;4939335;29;20052;-81
2022/03/24 08:11:33;;;;;;;0.95;0.32;;;;;;;7.70;65.36;102050.63;4938644;29;20051;-80
2022/03/24 08:14:02;;;;;;;3.72;0.47;;;;;;;7.66;65.62;102058.94;4939689;29;20110;-81
2022/03/24 08:16:30;;;;;;;4.30;0.68;;;;;;;7.63;66.52;102053.63;4943782;29;20086;-79
2022/03/24 08:18:59;;;;;;;2.28;0.28;;;;;;;7.59;67.72;102054.22;4941521;29;20051;-82
2022/03/24 08:21:29;;;;;;;0.75;0.30;;;;;;;7.56;68.78;102046.31;4939862;29;20086;-80
2022/03/24 08:23:57;;;;;;;0.30;0.22;;;;;;;7.54;69.47;102053.91;4937208;29;20800;-78
2022/03/24 08:26:26;;;;;;;4.03;0.95;;;;;;;7.46;69.81;102051.66;4936768;29;20055;-81
2022/03/24 08:28:57;;;;;;;2.03;0.52;;;;;;;7.43;69.39;102049.78;4936764;29;20090;-80
2022/03/24 08:31:25;;;;;;;2.92;0.60;;;;;;;7.41;67.85;102058.22;4936364;29;20052;-80
2022/03/24 08:33:54;;;;;;;0.60;0.35;;;;;;;7.37;68.26;102058.81;4937485;29;20090;-79
2022/03/24 08:36:22;;;;;;;4.03;0.50;;;;;;;7.35;67.79;102056.13;4937149;29;20099;-80
2022/03/24 08:38:52;;;;;;;2.22;0.30;;;;;;;7.30;66.71;102063.56;4940715;29;20177;-80
2022/03/24 08:41:21;;;;;;;1.45;0.30;;;;;;;7.21;70.67;102065.53;4939194;29;20134;-80
2022/03/24 08:43:50;;;;;;;4.22;0.60;;;;;;;7.06;72.93;102062.88;4940407;29;20063;-79
2022/03/24 08:46:24;;;;;;;2.20;0.28;;;;;;;6.93;69.31;102068.03;4942405;29;20065;-81
2022/03/24 08:48:53;;;;;;;0.75;0.50;;;;;;;6.85;68.97;102067.53;4948092;29;20079;-81
2022/03/24 08:51:22;;;;;;;1.48;0.32;;;;;;;6.78;70.22;102078.22;4947476;29;20052;-79
2022/03/24 08:53:53;;;;;;;1.77;0.47;;;;;;;6.65;69.97;102075.63;4941458;29;20148;-80
2022/03/24 08:56:22;;;;;;;1.48;0.32;;;;;;;6.62;70.00;102080.53;4940327;29;20048;-80
2022/03/24 08:58:51;;;;;;;0.90;0.40;;;;;;;6.63;70.74;102082.34;4940307;29;20526;-81
2022/03/24 09:01:21;;;;;;;1.88;0.70;;;;;;;6.66;71.04;102077.38;4937372;29;20565;-81
2022/03/24 09:03:51;;;;;;;2.15;0.40;;;;;;;6.66;71.70;102082.53;4936094;29;20051;-81
2022/03/24 09:06:20;;;;;;;3.22;0.43;;;;;;;6.70;72.67;102087.09;4937383;28;20509;-81
2022/03/24 09:08:48;;;;;;;1.48;0.32;;;;;;;6.70;73.21;102093.13;4939900;29;20130;-81
2022/03/24 09:11:18;;;;;;;2.97;0.50;;;;;;;6.65;71.71;102085.91;4941831;29;20458;-81
2022/03/24 09:13:47;;;;;;;3.22;0.73;;;;;;;6.70;70.55;102094.81;4942347;29;20572;-81
2022/03/24 09:16:15;;;;;;;2.28;0.45;;;;;;;6.69;70.42;102095.63;4943980;29;20055;-80
2022/03/24 09:18:44;;;;;;;1.10;0.75;;;;;;;6.67;71.80;102097.19;4926203;29;20120;-81
2022/03/24 09:21:13;;;;;;;1.50;0.82;;;;;;;6.66;72.40;102097.97;4937877;29;20139;-79
2022/03/24 09:23:41;;;;;;;4.07;0.52;;;;;;;6.66;72.70;102105.69;4939396;29;20052;-82
2022/03/24 09:26:10;;;;;;;2.33;0.65;;;;;;;6.66;73.29;102096.28;4925295;29;20078;-81
2022/03/24 09:28:40;;;;;;;0.75;0.38;;;;;;;6.65;72.09;102103.91;4942642;29;20055;-81
2022/03/24 09:31:09;;;;;;;2.22;0.98;;;;;;;6.63;72.54;102105.47;4942095;29;20052;-80
2022/03/24 09:33:37;;;;;;;2.45;0.40;;;;;;;6.59;74.09;102101.81;4941429;29;20087;-81
2022/03/24 09:36:06;;;;;;;1.85;0.55;;;;;;;6.60;73.51;102105.28;4936807;29;20051;-81
2022/03/24 09:38:35;;;;;;;4.95;1.25;;;;;;;6.58;73.49;102112.00;4939103;29;20051;-81
2022/03/24 09:41:05;;;;;;;4.85;0.50;;;;;;;6.55;73.09;102106.63;4939501;29;20051;-80
2022/03/24 09:43:36;;;;;;;0.45;0.30;;;;;;;6.55;72.96;102104.06;4937312;29;20075;-80
2022/03/24 09:46:06;;;;;;;4.30;0.73;;;;;;;6.52;73.66;102106.44;4922674;29;20047;-80
2022/03/24 09:48:35;;;;;;;3.15;0.55;;;;;;;6.50;74.32;102109.81;4936059;29;20565;-81
2022/03/24 09:51:03;;;;;;;0.30;0.20;;;;;;;6.45;73.82;102098.31;4936750;29;20071;-80
2022/03/24 09:53:32;;;;;;;0.70;0.47;;;;;;;6.43;74.13;102092.16;4936625;29;20055;-81
2022/03/24 09:56:01;;;;;;;2.60;0.40;;;;;;;6.43;75.04;102088.69;4936651;29;20048;-79
2022/03/24 09:58:29;;;;;;;2.15;0.50;;;;;;;6.36;75.34;102071.97;4934807;29;20426;-79
2022/03/24 10:00:58;;;;;;;3.40;1.20;;;;;;;6.32;76.16;102071.66;4927004;29;20107;-80
2022/03/24 10:03:28;;;;;;;3.38;0.47;;;;;;;6.22;76.35;102063.31;4934048;29;20056;-80
2022/03/24 10:05:59;;;;;;;3.38;0.60;;;;;;;6.18;76.48;102063.00;4927589;28;20114;-80
2022/03/24 10:08:29;;;;;;;2.42;0.68;;;;;;;6.06;77.77;102052.78;4936998;29;20054;-80
2022/03/24 10:11:01;;;;;;;3.78;0.60;;;;;;;5.91;78.42;102052.63;4938055;29;20051;-80
2022/03/24 10:13:44;;;;;;;2.38;0.40;;;;;;;5.84;79.74;102056.44;4941413;29;20071;-79
2022/03/24 10:16:14;;;;;;;1.90;0.52;;;;;;;5.80;80.76;102046.72;4940817;29;20051;-82
2022/03/24 10:19:00;;;;;;;1.45;0.30;;;;;;;5.79;80.71;102046.59;4937783;29;20055;-79
2022/03/24 10:21:30;;;;;;;4.50;0.60;;;;;;;5.79;80.76;102041.47;4936652;29;20044;-79
2022/03/24 10:24:00;;;;;;;1.52;0.50;;;;;;;5.77;80.21;102043.03;4936453;29;20051;-82
2022/03/24 10:26:44;;;;;;;3.00;1.52;;;;;;;5.74;80.45;102038.59;4939152;29;20047;-80
2022/03/24 10:29:15;;;;;;;3.88;0.95;;;;;;;5.71;80.21;102040.06;4936976;29;20044;-80
2022/03/24 10:31:43;;;;;;;2.28;0.73;;;;;;;5.67;80.03;102037.25;4938635;29;20048;-82
2022/03/24 10:34:14;;;;;;;4.78;0.55;;;;;;;5.63;79.79;102042.06;4940137;29;20526;-80
2022/03/24 10:36:43;;;;;;;1.20;0.60;;;;;;;5.58;79.89;102038.31;4940194;29;20059;-80
2022/03/24 10:39:12;;;;;;;4.20;0.70;;;;;;;5.59;79.91;102041.00;4927416;29;20051;-79
2022/03/24 10:41:41;;;;;;;3.33;0.55;;;;;;;5.55;80.26;102038.97;4940174;29;20057;-81
2022/03/24 10:44:11;;;;;;;3.95;1.05;;;;;;;5.54;81.47;102044.88;4940185;29;20058;-81
2022/03/24 10:46:42;;;;;;;3.78;0.60;;;;;;;5.55;81.15;102041.56;4940135;29;20461;-80
2022/03/24 10:49:23;;;;;;;2.92;0.60;;;;;;;5.50;81.92;102036.84;4942297;29;20050;-79
2022/03/24 10:51:52;;;;;;;2.72;1.00;;;;;;;5.42;81.50;102034.66;4923831;29;20058;-82
2022/03/24 10:54:28;;;;;;;1.08;0.40;;;;;;;5.38;81.62;102036.88;4936234;29;20072;-81
2022/03/24 10:57:03;;;;;;;1.15;0.50;;;;;;;5.37;82.56;102045.38;4937551;29;20118;-81
2022/03/24 10:59:36;;;;;;;7.07;0.57;;;;;;;5.33;83.31;102034.00;4937818;29;20079;-81
2022/03/24 11:02:05;;;;;;;2.55;0.40;;;;;;;5.30;83.92;102036.34;4937418;29;20051;-81
2022/03/24 11:04:35;;;;;;;5.05;1.15;;;;;;;5.27;84.73;102030.09;4926419;29;20043;-81
2022/03/24 11:07:05;;;;;;;1.55;0.63;;;;;;;5.23;85.12;102032.44;4944645;28;20059;-81
2022/03/24 11:09:35;;;;;;;2.47;0.52;;;;;;;5.21;85.87;102039.16;4940846;29;20102;-80
2022/03/24 11:12:25;;;;;;;2.38;0.60;;;;;;;5.20;87.06;102032.25;4939846;29;20048;-81
2022/03/24 11:14:55;;;;;;;1.25;0.38;;;;;;;5.15;86.82;102027.56;4938982;29;20689;-81
2022/03/24 11:17:26;;;;;;;3.10;0.50;;;;;;;5.12;86.33;102022.22;4942160;29;20066;-80
2022/03/24 11:20:07;;;;;;;2.85;0.52;;;;;;;5.09;87.01;102022.00;4941417;29;20054;-80
2022/03/24 11:22:41;;;;;;;4.93;0.75;;;;;;;5.06;86.54;102027.78;4940541;29;20526;-80
2022/03/24 11:25:10;;;;;;;4.50;1.10;;;;;;;5.03;87.84;102036.16;4941651;29;20138;-80
2022/03/24 11:27:39;;;;;;;1.00;0.43;;;;;;;5.03;89.79;102028.44;4940570;29;20052;-80
2022/03/24 11:30:10;;;;;;;5.10;0.80;;;;;;;5.01;89.70;102027.44;4940029;29;20047;-80
2022/03/24 11:32:41;;;;;;;1.23;0.55;;;;;;;5.00;90.35;102024.78;4939887;29;20078;-79
2022/03/24 11:35:13;;;;;;;2.83;1.43;;;;;;;4.98;91.67;102018.66;4939822;29;20083;-81
2022/03/24 11:37:42;;;;;;;5.93;1.00;;;;;;;4.91;91.42;102006.16;4939714;29;20070;-80
2022/03/24 11:40:13;;;;;;;2.72;0.95;;;;;;;4.96;93.41;102015.09;4940950;29;20127;-80